createdAt,value
2018-05-10T00:01:23.169Z,15.07
2018-05-10T00:03:51.116Z,15.03
2018-05-10T00:06:18.815Z,15.02
2018-05-10T00:08:46.369Z,15.01
2018-05-10T00:11:13.916Z,14.96
2018-05-10T00:13:41.508Z,14.95
2018-05-10T00:16:09.042Z,14.91
2018-05-10T00:18:36.683Z,14.91
2018-05-10T00:21:04.288Z,14.89
2018-05-10T00:23:31.832Z,14.85
2018-05-10T00:25:59.382Z,14.79
2018-05-10T00:28:26.974Z,14.73
2018-05-10T00:30:54.519Z,14.67
2018-05-10T00:33:22.074Z,14.62
2018-05-10T00:35:49.661Z,14.60
2018-05-10T00:38:17.198Z,14.57
2018-05-10T00:40:44.743Z,14.53
2018-05-10T00:43:12.303Z,14.50
2018-05-10T00:45:39.868Z,14.50
2018-05-10T00:48:07.420Z,14.49
2018-05-10T00:50:35.142Z,14.46
2018-05-10T00:53:02.699Z,14.37
2018-05-10T00:55:30.237Z,14.31
2018-05-10T00:57:57.814Z,14.29
2018-05-10T01:00:25.360Z,14.25
2018-05-10T01:02:52.920Z,14.23
2018-05-10T01:05:20.591Z,14.24
2018-05-10T01:07:48.131Z,14.21
2018-05-10T01:10:15.683Z,14.18
2018-05-10T01:12:43.273Z,14.16
2018-05-10T01:15:10.811Z,14.17
2018-05-10T01:17:38.367Z,14.16
2018-05-10T01:20:06.086Z,14.14
2018-05-10T01:22:33.644Z,14.16
2018-05-10T01:25:01.196Z,14.09
2018-05-10T01:27:28.870Z,14.08
2018-05-10T01:29:56.428Z,14.03
2018-05-10T01:32:23.973Z,14.00
2018-05-10T01:35:03.425Z,14.02
2018-05-10T01:37:30.977Z,14.02
2018-05-10T01:39:58.513Z,13.99
2018-05-10T01:42:26.280Z,13.95
2018-05-10T01:44:53.827Z,13.92
2018-05-10T01:47:21.363Z,13.91
2018-05-10T01:49:48.952Z,13.89
2018-05-10T01:52:16.502Z,13.89
2018-05-10T01:54:44.078Z,13.87
2018-05-10T01:57:11.811Z,13.86
2018-05-10T01:59:39.616Z,13.83
2018-05-10T02:02:07.151Z,13.85
2018-05-10T02:04:34.723Z,13.82
2018-05-10T02:07:02.271Z,13.85
2018-05-10T02:09:29.811Z,13.86
2018-05-10T02:11:57.760Z,13.85
2018-05-10T02:14:25.304Z,13.85
2018-05-10T02:16:52.858Z,13.83
2018-05-10T02:19:20.436Z,13.84
2018-05-10T02:21:47.966Z,13.82
2018-05-10T02:24:15.520Z,13.79
2018-05-10T02:26:43.073Z,13.77
2018-05-10T02:29:10.626Z,13.78
2018-05-10T02:31:38.324Z,13.75
2018-05-10T02:34:05.862Z,13.70
2018-05-10T02:36:33.408Z,13.69
2018-05-10T02:39:00.978Z,13.67
2018-05-10T02:41:28.554Z,13.64
2018-05-10T02:43:56.097Z,13.62
2018-05-10T02:46:24.081Z,13.63
2018-05-10T02:48:51.623Z,13.55
2018-05-10T02:51:19.166Z,13.54
2018-05-10T02:53:46.892Z,13.53
2018-05-10T02:56:14.440Z,13.53
2018-05-10T02:58:42.021Z,13.55
2018-05-10T03:01:09.714Z,13.57
2018-05-10T03:03:37.286Z,13.58
2018-05-10T03:06:04.834Z,13.58
2018-05-10T03:08:32.647Z,13.59
2018-05-10T03:11:00.187Z,13.61
2018-05-10T03:13:27.739Z,13.60
2018-05-10T03:15:55.316Z,13.60
2018-05-10T03:18:22.856Z,13.59
2018-05-10T03:20:50.405Z,13.59
2018-05-10T03:23:18.120Z,13.62
2018-05-10T03:25:45.709Z,13.65
2018-05-10T03:28:13.267Z,13.69
2018-05-10T03:30:40.974Z,13.71
2018-05-10T03:33:08.515Z,13.72
2018-05-10T03:35:36.067Z,13.76
2018-05-10T03:38:03.643Z,13.78
2018-05-10T03:40:31.243Z,13.82
2018-05-10T03:42:58.795Z,13.85
2018-05-10T03:45:26.688Z,13.89
2018-05-10T03:47:54.228Z,13.95
2018-05-10T03:50:21.790Z,14.08
2018-05-10T03:52:49.372Z,14.57
2018-05-10T03:55:16.912Z,15.29
2018-05-10T03:57:44.461Z,15.93
2018-05-10T04:00:12.044Z,16.20
2018-05-10T04:02:51.314Z,16.21
2018-05-10T04:05:30.622Z,16.16
2018-05-10T04:08:09.980Z,16.06
2018-05-10T04:10:49.330Z,15.92
2018-05-10T04:13:16.875Z,15.80
2018-05-10T04:15:44.410Z,15.70
2018-05-10T04:18:11.988Z,15.60
2018-05-10T04:20:39.532Z,15.53
2018-05-10T04:23:07.082Z,15.52
2018-05-10T04:25:34.624Z,15.49
2018-05-10T04:28:02.176Z,15.53
2018-05-10T04:30:29.762Z,15.53
2018-05-10T04:32:57.312Z,15.53
2018-05-10T04:35:24.851Z,15.51
2018-05-10T04:37:52.568Z,15.52
2018-05-10T04:40:20.120Z,15.52
2018-05-10T04:42:47.664Z,15.58
2018-05-10T04:45:15.464Z,15.64
2018-05-10T04:47:43.016Z,15.71
2018-05-10T04:50:10.563Z,15.79
2018-05-10T04:52:38.143Z,15.91
2018-05-10T04:55:05.693Z,16.05
2018-05-10T04:57:33.245Z,16.23
2018-05-10T05:00:00.862Z,16.44
2018-05-10T05:02:28.411Z,16.63
2018-05-10T05:04:55.956Z,16.87
2018-05-10T05:07:23.524Z,17.05
2018-05-10T05:09:51.059Z,17.17
2018-05-10T05:12:18.609Z,17.25
2018-05-10T05:14:46.175Z,17.33
2018-05-10T05:17:13.720Z,17.42
2018-05-10T05:19:41.288Z,17.44
2018-05-10T05:22:08.861Z,17.42
2018-05-10T05:24:36.408Z,17.42
2018-05-10T05:27:03.971Z,17.40
2018-05-10T05:29:31.551Z,17.33
2018-05-10T05:31:59.098Z,17.21
2018-05-10T05:34:26.655Z,17.27
2018-05-10T05:36:54.343Z,17.34
2018-05-10T05:39:21.902Z,17.50
2018-05-10T05:41:49.453Z,17.78
2018-05-10T05:44:17.375Z,17.95
2018-05-10T05:46:44.945Z,18.01
2018-05-10T05:49:12.519Z,18.07
2018-05-10T05:51:40.252Z,18.06
2018-05-10T05:54:07.809Z,18.03
2018-05-10T05:56:35.352Z,18.06
2018-05-10T05:59:02.950Z,18.04
2018-05-10T06:01:30.500Z,18.01
2018-05-10T06:03:58.034Z,18.15
2018-05-10T06:06:25.756Z,18.18
2018-05-10T06:08:53.304Z,18.20
2018-05-10T06:11:20.857Z,18.23
2018-05-10T06:13:48.545Z,18.28
2018-05-10T06:16:16.100Z,18.28
2018-05-10T06:18:43.653Z,18.20
2018-05-10T06:21:11.375Z,18.17
2018-05-10T06:23:38.947Z,18.16
2018-05-10T06:26:06.488Z,18.40
2018-05-10T06:28:34.376Z,18.48
2018-05-10T06:31:01.921Z,18.83
2018-05-10T06:33:29.484Z,18.90
2018-05-10T06:35:57.080Z,19.01
2018-05-10T06:38:24.620Z,19.44
2018-05-10T06:40:52.177Z,20.02
2018-05-10T06:43:19.914Z,20.62
2018-05-10T06:45:47.464Z,20.80
2018-05-10T06:48:15.000Z,21.01
2018-05-10T06:50:42.583Z,21.19
2018-05-10T06:53:10.127Z,20.79
2018-05-10T06:55:37.674Z,20.75
2018-05-10T06:58:05.458Z,20.71
2018-05-10T07:00:33.004Z,20.58
2018-05-10T07:03:00.556Z,20.62
2018-05-10T07:05:28.148Z,20.70
2018-05-10T07:07:55.680Z,20.72
2018-05-10T07:10:23.212Z,20.81
2018-05-10T07:12:50.788Z,20.92
2018-05-10T07:15:18.328Z,20.83
2018-05-10T07:17:45.888Z,20.96
2018-05-10T07:20:13.613Z,21.05
2018-05-10T07:22:41.163Z,21.07
2018-05-10T07:25:08.784Z,21.20
2018-05-10T07:27:36.278Z,21.14
2018-05-10T07:30:03.862Z,21.28
2018-05-10T07:32:31.440Z,21.54
2018-05-10T07:34:58.991Z,21.59
2018-05-10T07:37:26.556Z,21.76
2018-05-10T07:39:54.145Z,22.04
2018-05-10T07:42:21.688Z,22.40
2018-05-10T07:44:49.221Z,21.95
2018-05-10T07:47:16.870Z,21.57
2018-05-10T07:49:44.366Z,21.70
2018-05-10T07:52:11.901Z,21.90
2018-05-10T07:54:39.484Z,21.68
2018-05-10T07:57:07.026Z,21.78
2018-05-10T07:59:34.561Z,21.74
2018-05-10T08:02:02.752Z,21.56
2018-05-10T08:04:30.307Z,21.47
2018-05-10T08:06:57.859Z,21.40
2018-05-10T08:09:25.439Z,21.10
2018-05-10T08:11:52.986Z,21.06
2018-05-10T08:14:20.530Z,20.97
2018-05-10T08:16:48.245Z,21.17
2018-05-10T08:19:15.988Z,21.11
2018-05-10T08:21:43.519Z,20.55
2018-05-10T08:24:11.325Z,20.75
2018-05-10T08:26:38.816Z,21.01
2018-05-10T08:29:06.348Z,20.98
2018-05-10T08:31:33.914Z,21.06
2018-05-10T08:34:01.450Z,21.00
2018-05-10T08:36:29.010Z,20.85
2018-05-10T08:38:56.730Z,20.94
2018-05-10T08:41:24.269Z,20.86
2018-05-10T08:43:51.808Z,21.03
2018-05-10T08:46:19.532Z,21.06
2018-05-10T08:48:47.067Z,21.02
2018-05-10T08:51:14.619Z,21.20
2018-05-10T08:53:42.198Z,21.16
2018-05-10T08:56:09.732Z,21.29
2018-05-10T08:58:37.268Z,21.36
2018-05-10T09:01:04.851Z,21.42
2018-05-10T09:03:32.384Z,21.50
2018-05-10T09:05:59.921Z,21.63
2018-05-10T09:08:27.605Z,21.86
2018-05-10T09:10:55.161Z,21.37
2018-05-10T09:13:22.696Z,21.30
2018-05-10T09:15:50.276Z,21.24
2018-05-10T09:18:17.820Z,21.06
2018-05-10T09:20:45.351Z,21.03
2018-05-10T09:23:13.089Z,21.04
2018-05-10T09:25:40.627Z,21.08
2018-05-10T09:28:08.175Z,20.91
2018-05-10T09:30:35.865Z,20.95
2018-05-10T09:33:03.408Z,20.95
2018-05-10T09:35:30.970Z,21.13
2018-05-10T09:37:58.557Z,21.26
2018-05-10T09:40:26.105Z,21.43
2018-05-10T09:42:53.645Z,21.89
2018-05-10T09:45:21.213Z,22.25
2018-05-10T09:47:48.760Z,22.49
2018-05-10T09:50:16.297Z,22.83
2018-05-10T09:52:44.044Z,23.14
2018-05-10T09:55:11.600Z,22.99
2018-05-10T09:57:39.144Z,22.83
2018-05-10T10:00:06.764Z,22.95
2018-05-10T10:02:34.310Z,22.98
2018-05-10T10:05:01.852Z,22.66
2018-05-10T10:07:29.437Z,22.17
2018-05-10T10:09:56.967Z,22.63
2018-05-10T10:12:24.509Z,23.15
2018-05-10T10:14:52.415Z,23.44
2018-05-10T10:17:19.980Z,23.46
2018-05-10T10:19:47.519Z,23.74
2018-05-10T10:22:15.084Z,24.16
2018-05-10T10:24:42.628Z,24.13
2018-05-10T10:27:10.168Z,24.14
2018-05-10T10:29:37.891Z,23.39
2018-05-10T10:32:05.438Z,23.64
2018-05-10T10:34:33.048Z,23.69
2018-05-10T10:37:00.588Z,24.04
2018-05-10T10:39:28.129Z,23.47
2018-05-10T10:41:55.677Z,22.64
2018-05-10T10:44:23.235Z,21.84
2018-05-10T10:46:50.788Z,21.03
2018-05-10T10:49:18.340Z,20.52
2018-05-10T10:51:45.898Z,20.12
2018-05-10T10:54:13.435Z,20.10
2018-05-10T10:56:40.985Z,20.07
2018-05-10T10:59:08.962Z,20.11
2018-05-10T11:01:36.546Z,20.17
2018-05-10T11:04:04.073Z,20.23
2018-05-10T11:06:31.660Z,20.28
2018-05-10T11:08:59.199Z,20.28
2018-05-10T11:11:26.763Z,20.30
2018-05-10T11:13:54.444Z,20.24
2018-05-10T11:16:21.989Z,20.18
2018-05-10T11:18:49.549Z,20.16
2018-05-10T11:21:17.133Z,19.96
2018-05-10T11:23:44.675Z,19.73
2018-05-10T11:26:12.236Z,19.50
2018-05-10T11:28:39.820Z,19.47
2018-05-10T11:31:07.353Z,19.47
2018-05-10T11:33:34.888Z,19.60
2018-05-10T11:36:02.616Z,19.74
2018-05-10T11:38:30.185Z,19.82
2018-05-10T11:40:57.727Z,19.73
2018-05-10T11:43:25.300Z,19.84
2018-05-10T11:45:52.879Z,19.86
2018-05-10T11:48:20.442Z,19.98
2018-05-10T11:50:48.187Z,19.87
2018-05-10T11:53:15.733Z,19.72
2018-05-10T11:55:43.281Z,19.49
2018-05-10T11:58:10.888Z,19.13
2018-05-10T12:00:38.565Z,18.74
2018-05-10T12:03:06.108Z,18.37
2018-05-10T12:05:33.828Z,18.16
2018-05-10T12:08:01.362Z,18.04
2018-05-10T12:10:28.901Z,18.07
2018-05-10T12:12:56.463Z,18.13
2018-05-10T12:15:24.017Z,18.05
2018-05-10T12:17:51.574Z,18.19
2018-05-10T12:20:19.386Z,17.99
2018-05-10T12:22:46.978Z,17.98
2018-05-10T12:25:14.519Z,17.95
2018-05-10T12:27:42.069Z,18.03
2018-05-10T12:30:09.620Z,18.04
2018-05-10T12:32:37.187Z,18.06
2018-05-10T12:35:04.737Z,18.25
2018-05-10T12:37:32.337Z,18.48
2018-05-10T12:40:00.040Z,18.47
2018-05-10T12:42:27.590Z,18.41
2018-05-10T12:44:55.136Z,18.27
2018-05-10T12:47:22.721Z,18.27
2018-05-10T12:49:50.260Z,18.29
2018-05-10T12:52:17.858Z,18.19
2018-05-10T12:54:45.575Z,18.07
2018-05-10T12:57:13.117Z,18.02
2018-05-10T12:59:40.660Z,17.98
2018-05-10T13:02:08.244Z,18.02
2018-05-10T13:04:35.803Z,17.99
2018-05-10T13:07:03.355Z,17.87
2018-05-10T13:09:31.032Z,17.75
2018-05-10T13:11:58.675Z,17.74
2018-05-10T13:14:26.231Z,17.71
2018-05-10T13:16:53.819Z,17.64
2018-05-10T13:19:21.416Z,17.61
2018-05-10T13:21:49.018Z,17.56
2018-05-10T13:24:16.571Z,17.56
2018-05-10T13:26:44.114Z,17.58
2018-05-10T13:29:11.650Z,17.57
2018-05-10T13:31:39.214Z,17.51
2018-05-10T13:34:06.765Z,17.27
2018-05-10T13:36:34.361Z,17.23
2018-05-10T13:39:01.937Z,17.24
2018-05-10T13:41:29.537Z,17.09
2018-05-10T13:43:57.082Z,17.06
2018-05-10T13:46:24.687Z,17.20
2018-05-10T13:48:52.227Z,17.20
2018-05-10T13:51:19.759Z,17.19
2018-05-10T13:53:47.331Z,17.05
2018-05-10T13:56:14.871Z,17.02
2018-05-10T13:58:42.442Z,16.96
2018-05-10T14:01:10.148Z,16.96
2018-05-10T14:03:37.713Z,16.95
2018-05-10T14:06:05.251Z,16.94
2018-05-10T14:08:32.839Z,16.95
2018-05-10T14:11:00.408Z,16.99
2018-05-10T14:13:27.980Z,16.94
2018-05-10T14:15:55.573Z,17.03
2018-05-10T14:18:23.138Z,16.98
2018-05-10T14:20:50.681Z,17.01
2018-05-10T14:23:18.364Z,17.07
2018-05-10T14:25:45.914Z,17.13
2018-05-10T14:28:13.458Z,17.00
2018-05-10T14:30:41.028Z,16.99
2018-05-10T14:33:08.631Z,16.93
2018-05-10T14:35:36.184Z,17.08
2018-05-10T14:38:03.774Z,17.18
2018-05-10T14:40:31.312Z,17.18
2018-05-10T14:42:58.903Z,17.03
2018-05-10T14:45:26.866Z,17.10
2018-05-10T14:47:54.405Z,17.13
2018-05-10T14:50:21.960Z,17.04
2018-05-10T14:52:49.682Z,17.04
2018-05-10T14:55:17.236Z,17.16
2018-05-10T14:57:44.775Z,17.22
2018-05-10T15:00:12.497Z,17.28
2018-05-10T15:02:40.060Z,17.14
2018-05-10T15:05:07.635Z,17.13
2018-05-10T15:07:35.717Z,17.20
2018-05-10T15:10:03.274Z,17.24
2018-05-10T15:12:30.835Z,17.31
2018-05-10T15:14:58.423Z,17.28
2018-05-10T15:17:25.972Z,17.27
2018-05-10T15:19:53.528Z,17.30
2018-05-10T15:22:21.284Z,17.19
2018-05-10T15:24:48.834Z,17.08
2018-05-10T15:27:16.429Z,17.15
2018-05-10T15:29:43.995Z,17.13
2018-05-10T15:32:11.549Z,17.07
2018-05-10T15:34:39.124Z,17.12
2018-05-10T15:37:06.954Z,17.12
2018-05-10T15:39:34.517Z,17.16
2018-05-10T15:42:02.069Z,17.14
2018-05-10T15:44:29.760Z,17.13
2018-05-10T15:46:57.309Z,17.13
2018-05-10T15:49:24.885Z,17.08
2018-05-10T15:51:52.658Z,17.06
2018-05-10T15:54:20.140Z,17.13
2018-05-10T15:56:47.695Z,17.28
2018-05-10T15:59:15.426Z,17.36
2018-05-10T16:01:42.982Z,17.44
2018-05-10T16:04:10.527Z,17.39
2018-05-10T16:06:38.290Z,17.35
2018-05-10T16:09:05.842Z,17.44
2018-05-10T16:11:33.390Z,17.39
2018-05-10T16:14:01.132Z,17.39
2018-05-10T16:16:28.696Z,17.45
2018-05-10T16:18:56.251Z,17.30
2018-05-10T16:21:23.971Z,17.28
2018-05-10T16:23:51.533Z,17.31
2018-05-10T16:26:19.084Z,17.30
2018-05-10T16:28:46.772Z,17.25
2018-05-10T16:31:14.403Z,17.03
2018-05-10T16:33:41.935Z,17.05
2018-05-10T16:36:09.496Z,17.01
2018-05-10T16:38:37.037Z,17.16
2018-05-10T16:41:04.645Z,17.19
2018-05-10T16:43:32.413Z,17.13
2018-05-10T16:45:59.950Z,17.05
2018-05-10T16:48:27.484Z,16.94
2018-05-10T16:50:55.383Z,16.79
2018-05-10T16:53:23.004Z,16.71
2018-05-10T16:55:50.530Z,16.75
2018-05-10T16:58:18.125Z,16.67
2018-05-10T17:00:45.665Z,16.56
2018-05-10T17:03:13.219Z,16.34
2018-05-10T17:05:40.787Z,16.44
2018-05-10T17:08:08.354Z,16.41
2018-05-10T17:10:35.905Z,16.39
2018-05-10T17:13:03.495Z,16.41
2018-05-10T17:15:31.057Z,16.38
2018-05-10T17:17:58.634Z,16.36
2018-05-10T17:20:26.332Z,16.34
2018-05-10T17:22:53.917Z,16.37
2018-05-10T17:25:21.460Z,16.31
2018-05-10T17:27:49.049Z,16.34
2018-05-10T17:30:16.590Z,16.26
2018-05-10T17:32:44.330Z,16.24
2018-05-10T17:35:11.899Z,16.24
2018-05-10T17:37:39.459Z,16.16
2018-05-10T17:40:07.028Z,16.07
2018-05-10T17:42:34.597Z,16.14
2018-05-10T17:45:02.134Z,16.13
2018-05-10T17:47:29.814Z,16.14
2018-05-10T17:49:57.353Z,16.07
2018-05-10T17:52:24.906Z,15.98
2018-05-10T17:54:52.838Z,15.94
2018-05-10T17:57:20.416Z,15.92
2018-05-10T17:59:47.959Z,15.92
2018-05-10T18:02:15.707Z,15.95
2018-05-10T18:04:43.270Z,16.04
2018-05-10T18:07:10.892Z,16.04
2018-05-10T18:09:38.737Z,16.06
2018-05-10T18:12:06.285Z,16.08
2018-05-10T18:14:33.835Z,16.13
2018-05-10T18:17:01.423Z,16.16
2018-05-10T18:19:28.973Z,16.09
2018-05-10T18:21:56.517Z,16.12
2018-05-10T18:24:24.310Z,16.17
2018-05-10T18:26:51.843Z,16.21
2018-05-10T18:29:19.396Z,16.20
2018-05-10T18:31:47.093Z,16.14
2018-05-10T18:34:14.677Z,16.13
2018-05-10T18:36:42.233Z,16.10
2018-05-10T18:39:09.818Z,16.03
2018-05-10T18:41:37.368Z,16.00
2018-05-10T18:44:04.926Z,16.05
2018-05-10T18:46:32.850Z,16.04
2018-05-10T18:49:00.400Z,16.02
2018-05-10T18:51:27.955Z,15.97
2018-05-10T18:53:55.541Z,15.90
2018-05-10T18:56:23.117Z,15.90
2018-05-10T18:58:50.689Z,15.84
2018-05-10T19:01:18.400Z,15.81
2018-05-10T19:03:45.965Z,15.82
2018-05-10T19:06:13.522Z,15.81
2018-05-10T19:08:41.283Z,15.81
2018-05-10T19:11:08.841Z,15.79
2018-05-10T19:13:36.496Z,15.77
2018-05-10T19:16:04.206Z,15.81
2018-05-10T19:18:31.771Z,15.77
2018-05-10T19:20:59.362Z,15.62
2018-05-10T19:23:27.280Z,15.63
2018-05-10T19:25:54.819Z,15.55
2018-05-10T19:28:22.402Z,15.42
2018-05-10T19:30:50.322Z,15.36
2018-05-10T19:33:17.881Z,15.43
2018-05-10T19:35:45.427Z,15.44
2018-05-10T19:38:13.922Z,15.37
2018-05-10T19:40:41.481Z,15.33
2018-05-10T19:43:09.027Z,15.33
2018-05-10T19:45:36.623Z,15.18
2018-05-10T19:48:04.202Z,15.10
2018-05-10T19:50:31.767Z,15.12
2018-05-10T19:52:59.519Z,15.10
2018-05-10T19:55:27.084Z,15.13
2018-05-10T19:57:54.664Z,15.15
2018-05-10T20:00:22.256Z,15.13
2018-05-10T20:02:49.796Z,15.12
2018-05-10T20:05:17.341Z,15.11
2018-05-10T20:07:45.067Z,15.12
2018-05-10T20:10:12.616Z,15.11
2018-05-10T20:12:40.191Z,15.11
2018-05-10T20:15:08.125Z,15.09
2018-05-10T20:17:35.687Z,15.07
2018-05-10T20:20:03.265Z,15.05
2018-05-10T20:22:30.845Z,15.03
2018-05-10T20:24:58.390Z,15.00
2018-05-10T20:27:25.943Z,14.92
2018-05-10T20:29:53.628Z,14.91
2018-05-10T20:32:21.174Z,14.90
2018-05-10T20:34:48.732Z,14.84
2018-05-10T20:37:16.441Z,14.87
2018-05-10T20:39:44.009Z,14.85
2018-05-10T20:42:11.563Z,14.80
2018-05-10T20:44:39.174Z,14.80
2018-05-10T20:47:06.724Z,14.83
2018-05-10T20:49:34.272Z,14.84
2018-05-10T20:52:01.963Z,14.82
2018-05-10T20:54:29.488Z,14.80
2018-05-10T20:56:57.032Z,14.64
2018-05-10T20:59:24.920Z,14.64
2018-05-10T21:01:52.526Z,14.68
2018-05-10T21:04:20.089Z,14.69
2018-05-10T21:06:48.012Z,14.69
2018-05-10T21:09:15.552Z,14.69
2018-05-10T21:11:43.089Z,14.71
2018-05-10T21:14:10.831Z,14.75
2018-05-10T21:16:38.368Z,14.72
2018-05-10T21:19:05.916Z,14.81
2018-05-10T21:21:33.494Z,14.89
2018-05-10T21:24:01.028Z,14.85
2018-05-10T21:26:28.569Z,14.84
2018-05-10T21:28:56.159Z,14.77
2018-05-10T21:31:23.709Z,14.73
2018-05-10T21:33:51.369Z,14.77
2018-05-10T21:36:18.868Z,14.86
2018-05-10T21:38:46.422Z,14.82
2018-05-10T21:41:14.004Z,14.76
2018-05-10T21:43:41.565Z,14.78
2018-05-10T21:46:09.127Z,14.89
2018-05-10T21:48:36.704Z,14.97
2018-05-10T21:51:04.244Z,14.93
2018-05-10T21:53:31.772Z,14.90
2018-05-10T21:55:59.344Z,14.92
2018-05-10T21:58:26.899Z,14.84
2018-05-10T22:00:54.439Z,14.89
2018-05-10T22:03:22.007Z,14.92
2018-05-10T22:05:49.550Z,14.91
2018-05-10T22:08:17.092Z,14.94
2018-05-10T22:10:44.677Z,15.00
2018-05-10T22:13:12.213Z,15.05
2018-05-10T22:15:39.767Z,15.06
2018-05-10T22:18:07.339Z,15.11
2018-05-10T22:20:34.887Z,15.13
2018-05-10T22:23:02.429Z,15.16
2018-05-10T22:25:30.138Z,15.22
2018-05-10T22:27:57.687Z,15.22
2018-05-10T22:30:25.226Z,15.27
2018-05-10T22:32:52.899Z,15.28
2018-05-10T22:35:20.435Z,15.37
2018-05-10T22:37:48.020Z,15.38
2018-05-10T22:40:15.753Z,15.38
2018-05-10T22:42:43.312Z,15.32
2018-05-10T22:45:10.854Z,15.20
2018-05-10T22:47:38.568Z,15.26
2018-05-10T22:50:06.110Z,15.29
2018-05-10T22:52:33.672Z,15.31
2018-05-10T22:55:01.669Z,15.32
2018-05-10T22:57:29.222Z,15.29
2018-05-10T22:59:56.758Z,15.24
2018-05-10T23:02:24.315Z,15.20
2018-05-10T23:04:51.852Z,15.22
2018-05-10T23:07:19.401Z,15.22
2018-05-10T23:09:47.145Z,15.22
2018-05-10T23:12:14.683Z,15.21
2018-05-10T23:14:42.253Z,15.23
2018-05-10T23:17:09.815Z,15.23
2018-05-10T23:19:37.348Z,15.26
2018-05-10T23:22:04.875Z,15.27
2018-05-10T23:24:32.448Z,15.25
2018-05-10T23:26:59.991Z,15.25
2018-05-10T23:29:27.547Z,15.25
2018-05-10T23:31:55.264Z,15.25
2018-05-10T23:34:22.812Z,15.21
2018-05-10T23:36:50.355Z,15.22
2018-05-10T23:39:17.922Z,15.25
2018-05-10T23:41:45.460Z,15.26
2018-05-10T23:44:13.017Z,15.26
2018-05-10T23:46:40.912Z,15.25
2018-05-10T23:49:08.457Z,15.24
2018-05-10T23:51:36.006Z,15.22
2018-05-10T23:54:03.911Z,15.14
2018-05-10T23:56:31.521Z,15.11
2018-05-10T23:58:59.134Z,15.12
